createdAt,value
2023-05-19T00:00:11.715Z,3.75
2023-05-19T00:01:11.724Z,4.02
2023-05-19T00:02:11.722Z,4.30
2023-05-19T00:03:11.829Z,3.58
2023-05-19T00:04:11.720Z,3.89
2023-05-19T00:05:11.710Z,4.24
2023-05-19T00:06:11.788Z,4.11
2023-05-19T00:07:11.702Z,4.19
2023-05-19T00:08:11.732Z,4.10
2023-05-19T00:09:11.745Z,4.61
2023-05-19T00:10:11.685Z,4.57
2023-05-19T00:12:11.755Z,4.00
2023-05-19T00:13:11.748Z,4.22
2023-05-19T00:15:11.708Z,4.25
2023-05-19T00:16:11.759Z,4.61
2023-05-19T00:17:11.743Z,4.94
2023-05-19T00:18:11.759Z,4.93
2023-05-19T00:20:11.744Z,4.46
2023-05-19T00:21:11.766Z,3.61
2023-05-19T00:23:11.736Z,4.57
2023-05-19T00:24:11.765Z,4.37
2023-05-19T00:25:11.780Z,3.82
2023-05-19T00:26:11.748Z,3.71
2023-05-19T00:27:11.777Z,4.01
2023-05-19T00:28:11.723Z,3.86
2023-05-19T00:29:11.767Z,4.72
2023-05-19T00:30:11.792Z,4.57
2023-05-19T00:31:11.734Z,4.05
2023-05-19T00:32:11.757Z,4.00
2023-05-19T00:33:11.795Z,4.36
2023-05-19T00:34:11.737Z,3.56
2023-05-19T00:35:11.758Z,4.66
2023-05-19T00:36:11.759Z,3.98
2023-05-19T00:38:11.834Z,4.37
2023-05-19T00:39:11.772Z,4.71
2023-05-19T00:40:11.772Z,4.03
2023-05-19T00:42:11.796Z,3.76
2023-05-19T00:43:11.793Z,4.14
2023-05-19T00:44:11.798Z,4.27
2023-05-19T00:47:11.776Z,3.96
2023-05-19T00:50:11.833Z,4.51
2023-05-19T00:51:11.827Z,3.51
2023-05-19T00:52:11.831Z,4.06
2023-05-19T00:55:11.863Z,4.69
2023-05-19T00:56:11.808Z,3.53
2023-05-19T00:57:11.787Z,3.80
2023-05-19T00:58:11.832Z,3.55
2023-05-19T00:59:11.850Z,4.01
2023-05-19T01:02:11.872Z,4.57
2023-05-19T01:03:12.025Z,3.95
2023-05-19T01:04:11.898Z,3.91
2023-05-19T01:06:11.848Z,4.13
2023-05-19T01:07:11.894Z,4.16
2023-05-19T01:08:11.892Z,3.65
2023-05-19T01:09:11.931Z,3.95
2023-05-19T01:10:11.842Z,3.81
2023-05-19T01:12:11.885Z,4.12
2023-05-19T01:13:11.902Z,3.74
2023-05-19T01:14:11.850Z,3.85
2023-05-19T01:15:11.841Z,4.67
2023-05-19T01:16:11.864Z,4.06
2023-05-19T01:17:11.861Z,4.48
2023-05-19T01:18:12.063Z,3.61
2023-05-19T01:19:11.984Z,4.12
2023-05-19T01:20:11.886Z,3.68
2023-05-19T01:21:11.899Z,4.31
2023-05-19T01:23:11.912Z,4.27
2023-05-19T01:24:11.925Z,4.39
2023-05-19T01:26:11.918Z,3.49
2023-05-19T01:27:11.919Z,3.85
2023-05-19T01:28:11.878Z,4.12
2023-05-19T01:30:11.929Z,3.88
2023-05-19T01:31:11.884Z,4.00
2023-05-19T01:32:12.043Z,3.77
2023-05-19T01:34:11.925Z,3.89
2023-05-19T01:36:11.913Z,3.53
2023-05-19T01:38:11.908Z,3.58
2023-05-19T01:39:11.951Z,4.30
2023-05-19T01:40:11.913Z,3.82
2023-05-19T01:41:11.901Z,3.80
2023-05-19T01:42:11.949Z,4.13
2023-05-19T01:44:11.930Z,3.91
2023-05-19T01:45:11.971Z,3.50
2023-05-19T01:46:12.083Z,3.95
2023-05-19T01:47:11.978Z,4.08
2023-05-19T01:48:12.047Z,4.01
2023-05-19T01:49:11.954Z,3.64
2023-05-19T01:50:11.972Z,3.65
2023-05-19T01:51:12.014Z,3.63
2023-05-19T01:52:12.006Z,3.40
2023-05-19T01:55:12.000Z,3.74
2023-05-19T01:56:11.955Z,3.75
2023-05-19T01:58:11.973Z,3.94
2023-05-19T01:59:12.015Z,3.91
2023-05-19T02:00:12.011Z,3.62
2023-05-19T02:01:12.015Z,3.48
2023-05-19T02:02:11.968Z,3.59
2023-05-19T02:03:12.026Z,3.72
2023-05-19T02:04:12.049Z,3.46
2023-05-19T02:05:12.008Z,4.43
2023-05-19T02:06:12.026Z,4.17
2023-05-19T02:07:12.004Z,4.13
2023-05-19T02:08:12.062Z,3.96
2023-05-19T02:09:12.048Z,3.65
2023-05-19T02:10:11.979Z,3.57
2023-05-19T02:11:12.031Z,3.66
2023-05-19T02:12:12.035Z,3.70
2023-05-19T02:13:12.074Z,3.66
2023-05-19T02:14:12.034Z,3.62
2023-05-19T02:15:12.009Z,3.71
2023-05-19T02:16:12.145Z,3.85
2023-05-19T02:17:12.039Z,3.66
2023-05-19T02:18:12.104Z,4.08
2023-05-19T02:19:12.125Z,4.05
2023-05-19T02:20:12.064Z,3.49
2023-05-19T02:21:12.075Z,3.71
2023-05-19T02:22:12.057Z,3.66
2023-05-19T02:23:12.037Z,3.89
2023-05-19T02:24:12.088Z,3.91
2023-05-19T02:26:12.076Z,3.79
2023-05-19T02:27:12.092Z,3.96
2023-05-19T02:28:12.053Z,3.82
2023-05-19T02:29:12.113Z,3.78
2023-05-19T02:31:12.049Z,3.84
2023-05-19T02:32:12.122Z,3.01
2023-05-19T02:33:12.114Z,3.23
2023-05-19T02:34:12.103Z,3.17
2023-05-19T02:35:12.099Z,3.61
2023-05-19T02:36:12.086Z,4.03
2023-05-19T02:37:12.095Z,4.11
2023-05-19T02:38:12.065Z,3.84
2023-05-19T02:39:12.103Z,3.67
2023-05-19T02:40:12.091Z,3.55
2023-05-19T02:41:12.102Z,3.95
2023-05-19T02:42:12.110Z,3.56
2023-05-19T02:43:12.086Z,4.04
2023-05-19T02:44:12.122Z,3.31
2023-05-19T02:45:12.101Z,3.46
2023-05-19T02:46:12.138Z,3.91
2023-05-19T02:48:12.176Z,4.24
2023-05-19T02:49:12.086Z,4.05
2023-05-19T02:50:12.113Z,4.00
2023-05-19T02:51:12.081Z,3.69
2023-05-19T02:52:12.142Z,4.10
2023-05-19T02:54:12.158Z,3.81
2023-05-19T02:55:12.163Z,3.25
2023-05-19T02:56:12.119Z,3.79
2023-05-19T02:57:12.162Z,3.80
2023-05-19T02:58:12.126Z,4.27
2023-05-19T02:59:12.117Z,3.68
2023-05-19T03:01:12.150Z,3.98
2023-05-19T03:02:12.188Z,3.72
2023-05-19T03:03:12.234Z,3.55
2023-05-19T03:04:12.145Z,4.01
2023-05-19T03:05:12.152Z,3.99
2023-05-19T03:06:12.171Z,4.01
2023-05-19T03:07:12.159Z,3.92
2023-05-19T03:08:12.195Z,3.49
2023-05-19T03:09:12.121Z,4.07
2023-05-19T03:10:12.128Z,3.44
2023-05-19T03:11:12.217Z,3.34
2023-05-19T03:12:12.149Z,3.80
2023-05-19T03:13:12.153Z,4.06
2023-05-19T03:14:12.150Z,3.81
2023-05-19T03:16:12.267Z,4.47
2023-05-19T03:17:12.193Z,3.95
2023-05-19T03:18:12.228Z,4.23
2023-05-19T03:19:12.219Z,3.59
2023-05-19T03:20:12.151Z,4.15
2023-05-19T03:21:12.195Z,4.34
2023-05-19T03:22:12.259Z,3.47
2023-05-19T03:24:12.214Z,3.67
2023-05-19T03:25:12.192Z,4.61
2023-05-19T03:26:12.238Z,3.82
2023-05-19T03:27:12.242Z,3.89
2023-05-19T03:28:12.224Z,3.58
2023-05-19T03:29:12.211Z,3.85
2023-05-19T03:30:12.187Z,4.16
2023-05-19T03:31:12.227Z,3.92
2023-05-19T03:32:12.289Z,4.22
2023-05-19T03:33:12.306Z,3.80
2023-05-19T03:34:12.270Z,4.05
2023-05-19T03:35:12.266Z,4.38
2023-05-19T03:36:12.266Z,3.94
2023-05-19T03:37:12.292Z,4.05
2023-05-19T03:38:12.203Z,3.77
2023-05-19T03:39:12.269Z,4.13
2023-05-19T03:40:12.263Z,4.11
2023-05-19T03:41:12.240Z,3.77
2023-05-19T03:42:12.277Z,4.28
2023-05-19T03:43:12.243Z,3.56
2023-05-19T03:44:12.250Z,3.82
2023-05-19T03:45:12.234Z,3.98
2023-05-19T03:46:12.266Z,3.61
2023-05-19T03:47:12.292Z,4.15
2023-05-19T03:48:12.253Z,3.90
2023-05-19T03:49:12.289Z,4.07
2023-05-19T03:50:12.248Z,4.01
2023-05-19T03:51:12.289Z,4.47
2023-05-19T03:52:12.306Z,3.34
2023-05-19T03:53:12.262Z,4.31
2023-05-19T03:54:12.279Z,4.35
2023-05-19T03:55:12.294Z,3.69
2023-05-19T03:56:12.280Z,3.94
2023-05-19T03:57:12.316Z,4.62
2023-05-19T03:58:12.303Z,3.88
2023-05-19T03:59:12.262Z,4.13
2023-05-19T04:00:12.348Z,4.55
2023-05-19T04:01:12.325Z,4.03
2023-05-19T04:02:12.365Z,4.27
2023-05-19T04:03:12.561Z,3.89
2023-05-19T04:04:12.321Z,4.59
2023-05-19T04:05:12.334Z,4.54
2023-05-19T04:06:12.331Z,4.74
2023-05-19T04:07:12.271Z,4.07
2023-05-19T04:08:12.334Z,4.10
2023-05-19T04:09:12.287Z,4.29
2023-05-19T04:10:12.349Z,4.11
2023-05-19T04:11:12.325Z,4.38
2023-05-19T04:12:12.339Z,4.05
2023-05-19T04:13:12.338Z,5.32
2023-05-19T04:14:12.308Z,5.01
2023-05-19T04:16:12.404Z,4.76
2023-05-19T04:17:12.353Z,4.12
2023-05-19T04:18:12.462Z,4.02
2023-05-19T04:19:12.374Z,3.65
2023-05-19T04:20:12.309Z,4.67
2023-05-19T04:21:12.363Z,4.39
2023-05-19T04:22:12.402Z,4.63
2023-05-19T04:23:12.372Z,4.33
2023-05-19T04:24:12.363Z,4.39
2023-05-19T04:25:12.364Z,4.34
2023-05-19T04:26:12.404Z,3.83
2023-05-19T04:27:12.446Z,4.03
2023-05-19T04:28:12.403Z,4.95
2023-05-19T04:31:12.459Z,4.41
2023-05-19T04:32:12.405Z,4.21
2023-05-19T04:33:12.402Z,3.86
2023-05-19T04:34:12.393Z,4.17
2023-05-19T04:35:12.361Z,4.20
2023-05-19T04:36:12.447Z,4.15
2023-05-19T04:37:12.422Z,4.58
2023-05-19T04:38:12.389Z,4.12
2023-05-19T04:39:12.449Z,4.82
2023-05-19T04:40:12.396Z,4.53
2023-05-19T04:41:12.405Z,4.30
2023-05-19T04:42:12.427Z,4.29
2023-05-19T04:43:12.433Z,4.43
2023-05-19T04:44:12.414Z,4.36
2023-05-19T04:45:12.475Z,4.41
2023-05-19T04:46:13.865Z,4.49
2023-05-19T04:47:12.515Z,4.38
2023-05-19T04:48:12.452Z,4.09
2023-05-19T04:49:12.423Z,4.56
2023-05-19T04:50:12.464Z,4.31
2023-05-19T04:51:12.429Z,4.35
2023-05-19T04:52:12.410Z,4.22
2023-05-19T04:54:12.465Z,4.55
2023-05-19T04:56:12.418Z,4.40
2023-05-19T04:57:12.439Z,4.46
2023-05-19T04:58:12.446Z,4.31
2023-05-19T04:59:12.415Z,4.04
2023-05-19T05:00:12.454Z,4.55
2023-05-19T05:01:12.484Z,4.34
2023-05-19T05:02:12.612Z,4.14
2023-05-19T05:05:12.456Z,3.60
2023-05-19T05:07:12.510Z,4.29
2023-05-19T05:08:12.469Z,3.85
2023-05-19T05:09:12.468Z,4.11
2023-05-19T05:10:12.488Z,4.53
2023-05-19T05:11:12.483Z,4.12
2023-05-19T05:12:12.467Z,4.73
2023-05-19T05:13:12.509Z,3.96
2023-05-19T05:14:12.455Z,3.94
2023-05-19T05:15:12.498Z,3.94
2023-05-19T05:16:12.564Z,4.50
2023-05-19T05:17:12.443Z,4.85
2023-05-19T05:18:12.511Z,4.21
2023-05-19T05:19:12.529Z,3.70
2023-05-19T05:20:12.494Z,4.11
2023-05-19T05:21:12.560Z,4.28
2023-05-19T05:22:12.523Z,4.90
2023-05-19T05:23:12.529Z,4.70
2023-05-19T05:24:12.541Z,4.87
2023-05-19T05:25:12.480Z,4.24
2023-05-19T05:26:12.516Z,4.90
2023-05-19T05:27:12.493Z,4.68
2023-05-19T05:28:12.510Z,4.94
2023-05-19T05:29:12.519Z,4.17
2023-05-19T05:30:12.480Z,4.23
2023-05-19T05:31:12.534Z,4.52
2023-05-19T05:32:12.618Z,4.29
2023-05-19T05:33:12.753Z,4.10
2023-05-19T05:34:12.532Z,4.00
2023-05-19T05:35:12.545Z,4.25
2023-05-19T05:36:12.512Z,4.22
2023-05-19T05:37:13.869Z,4.33
2023-05-19T05:39:12.505Z,4.39
2023-05-19T05:40:12.662Z,4.55
2023-05-19T05:41:12.524Z,4.21
2023-05-19T05:42:12.522Z,4.31
2023-05-19T05:43:12.541Z,3.76
2023-05-19T05:44:12.574Z,4.38
2023-05-19T05:46:12.585Z,4.42
2023-05-19T05:47:12.585Z,4.54
2023-05-19T05:48:12.641Z,4.77
2023-05-19T05:49:12.601Z,4.11
2023-05-19T05:50:12.601Z,4.58
2023-05-19T05:51:12.589Z,4.68
2023-05-19T05:53:12.588Z,4.93
2023-05-19T05:54:12.574Z,4.46
2023-05-19T05:55:12.588Z,4.87
2023-05-19T05:56:12.556Z,4.92
2023-05-19T05:57:12.583Z,4.98
2023-05-19T05:58:12.631Z,4.64
2023-05-19T05:59:12.577Z,4.33
2023-05-19T06:00:12.553Z,4.76
2023-05-19T06:01:12.644Z,4.11
2023-05-19T06:02:12.629Z,4.54
2023-05-19T06:03:12.658Z,4.32
2023-05-19T06:04:12.612Z,4.87
2023-05-19T06:05:12.695Z,4.49
2023-05-19T06:06:12.608Z,4.43
2023-05-19T06:07:12.612Z,4.46
2023-05-19T06:08:12.644Z,4.38
2023-05-19T06:09:12.571Z,4.45
2023-05-19T06:10:12.637Z,4.20
2023-05-19T06:12:12.626Z,5.03
2023-05-19T06:13:12.634Z,4.73
2023-05-19T06:14:12.629Z,4.73
2023-05-19T06:15:12.678Z,4.54
2023-05-19T06:16:12.696Z,4.84
2023-05-19T06:18:12.705Z,4.62
2023-05-19T06:19:12.727Z,4.97
2023-05-19T06:20:12.644Z,4.92
2023-05-19T06:22:12.637Z,5.22
2023-05-19T06:23:12.684Z,4.28
2023-05-19T06:24:12.665Z,5.37
2023-05-19T06:25:12.669Z,5.21
2023-05-19T06:26:12.710Z,5.05
2023-05-19T06:27:12.693Z,5.05
2023-05-19T06:28:12.674Z,4.91
2023-05-19T06:29:12.647Z,4.93
2023-05-19T06:31:12.704Z,5.21
2023-05-19T06:32:12.667Z,5.41
2023-05-19T06:33:12.671Z,6.02
2023-05-19T06:34:12.810Z,5.16
2023-05-19T06:35:12.633Z,4.72
2023-05-19T06:36:12.694Z,5.51
2023-05-19T06:37:12.698Z,5.94
2023-05-19T06:38:12.696Z,4.19
2023-05-19T06:39:12.688Z,5.42
2023-05-19T06:40:12.713Z,5.80
2023-05-19T06:41:12.694Z,4.57
2023-05-19T06:42:12.873Z,5.11
2023-05-19T06:43:12.727Z,5.11
2023-05-19T06:44:12.750Z,5.52
2023-05-19T06:45:12.742Z,5.14
2023-05-19T06:46:12.744Z,5.04
2023-05-19T06:47:12.828Z,5.27
2023-05-19T06:48:12.756Z,4.93
2023-05-19T06:49:12.789Z,5.77
2023-05-19T06:50:12.747Z,5.38
2023-05-19T06:51:12.728Z,5.09
2023-05-19T06:52:12.751Z,5.75
2023-05-19T06:53:12.740Z,5.98
2023-05-19T06:54:12.727Z,5.85
2023-05-19T06:55:12.752Z,5.50
2023-05-19T06:56:12.778Z,5.26
2023-05-19T06:57:12.747Z,5.94
2023-05-19T06:58:12.714Z,6.01
2023-05-19T06:59:12.708Z,5.67
2023-05-19T07:00:14.610Z,5.13
2023-05-19T07:01:12.787Z,5.13
2023-05-19T07:02:12.895Z,4.98
2023-05-19T07:03:12.872Z,5.21
2023-05-19T07:04:12.851Z,4.91
2023-05-19T07:05:12.811Z,5.36
2023-05-19T07:08:12.773Z,6.00
2023-05-19T07:09:12.748Z,5.73
2023-05-19T07:10:12.797Z,5.57
2023-05-19T07:11:12.778Z,5.71
2023-05-19T07:12:12.773Z,5.48
2023-05-19T07:13:12.792Z,4.81
2023-05-19T07:14:12.767Z,5.58
2023-05-19T07:15:12.779Z,5.94
2023-05-19T07:16:12.836Z,5.76
2023-05-19T07:17:12.826Z,6.60
2023-05-19T07:18:12.932Z,5.12
2023-05-19T07:19:12.863Z,5.86
2023-05-19T07:20:12.792Z,4.57
2023-05-19T07:22:12.852Z,5.42
2023-05-19T07:23:12.820Z,5.79
2023-05-19T07:24:12.858Z,5.49
2023-05-19T07:25:12.781Z,5.11
2023-05-19T07:26:12.822Z,5.34
2023-05-19T07:27:12.836Z,5.88
2023-05-19T07:28:12.811Z,6.02
2023-05-19T07:29:12.860Z,6.01
2023-05-19T07:30:12.805Z,5.35
2023-05-19T07:31:12.838Z,5.39
2023-05-19T07:32:12.896Z,4.93
2023-05-19T07:33:12.854Z,5.26
2023-05-19T07:34:12.829Z,5.97
2023-05-19T07:35:12.880Z,5.73
2023-05-19T07:36:12.850Z,5.78
2023-05-19T07:37:12.862Z,5.25
2023-05-19T07:38:12.833Z,4.98
2023-05-19T07:39:12.922Z,5.77
2023-05-19T07:40:12.847Z,6.42
2023-05-19T07:41:12.820Z,6.17
2023-05-19T07:42:12.857Z,6.22
2023-05-19T07:43:12.824Z,5.83
2023-05-19T07:44:13.146Z,5.83
2023-05-19T07:45:12.832Z,5.82
2023-05-19T07:46:12.896Z,6.18
2023-05-19T07:47:12.884Z,5.67
2023-05-19T07:48:12.930Z,5.80
2023-05-19T07:49:12.908Z,5.47
2023-05-19T07:50:12.924Z,5.69
2023-05-19T07:51:12.859Z,5.43
2023-05-19T07:52:12.882Z,5.95
2023-05-19T07:53:12.901Z,5.83
2023-05-19T07:54:12.845Z,6.01
2023-05-19T07:55:12.876Z,6.52
2023-05-19T07:56:12.915Z,5.95
2023-05-19T07:57:12.924Z,6.03
2023-05-19T07:58:12.933Z,6.21
2023-05-19T07:59:12.853Z,5.52
2023-05-19T08:00:12.928Z,6.00
2023-05-19T08:01:12.941Z,6.21
2023-05-19T08:02:13.025Z,5.98
2023-05-19T08:03:13.220Z,6.32
2023-05-19T08:04:13.357Z,5.95
2023-05-19T08:05:12.899Z,6.06
2023-05-19T08:06:12.949Z,6.38
2023-05-19T08:07:12.896Z,7.09
2023-05-19T08:09:12.892Z,5.78
2023-05-19T08:10:12.946Z,6.54
2023-05-19T08:11:12.946Z,5.58
2023-05-19T08:13:12.953Z,5.71
2023-05-19T08:14:12.969Z,5.59
2023-05-19T08:15:12.967Z,5.79
2023-05-19T08:16:12.994Z,6.60
2023-05-19T08:17:12.906Z,6.55
2023-05-19T08:18:13.031Z,6.45
2023-05-19T08:19:13.012Z,6.49
2023-05-19T08:20:12.952Z,6.94
2023-05-19T08:21:13.002Z,7.31
2023-05-19T08:22:12.940Z,6.83
2023-05-19T08:23:12.970Z,6.67
2023-05-19T08:24:12.921Z,6.55
2023-05-19T08:25:12.951Z,7.20
2023-05-19T08:26:12.939Z,6.85
2023-05-19T08:27:12.977Z,6.81
2023-05-19T08:28:12.974Z,6.53
2023-05-19T08:29:12.968Z,5.83
2023-05-19T08:30:12.976Z,6.97
2023-05-19T08:31:13.038Z,6.75
2023-05-19T08:32:13.330Z,6.96
2023-05-19T08:33:13.061Z,6.40
2023-05-19T08:34:12.996Z,6.94
2023-05-19T08:35:12.948Z,7.22
2023-05-19T08:36:13.005Z,7.23
2023-05-19T08:37:13.010Z,7.03
2023-05-19T08:38:12.970Z,6.40
2023-05-19T08:39:13.007Z,6.72
2023-05-19T08:40:13.006Z,7.36
2023-05-19T08:41:13.022Z,7.05
2023-05-19T08:42:13.041Z,6.97
2023-05-19T08:43:12.995Z,7.29
2023-05-19T08:44:13.023Z,6.23
2023-05-19T08:45:13.010Z,6.96
2023-05-19T08:46:13.271Z,6.80
2023-05-19T08:47:12.996Z,6.65
2023-05-19T08:48:13.062Z,7.22
2023-05-19T08:50:13.058Z,6.99
2023-05-19T08:51:13.040Z,7.38
2023-05-19T08:52:13.043Z,7.02
2023-05-19T08:53:24.986Z,6.85
2023-05-19T08:54:12.996Z,6.37
2023-05-19T08:55:13.116Z,6.69
2023-05-19T08:56:13.025Z,7.36
2023-05-19T08:57:13.041Z,7.21
2023-05-19T08:58:13.082Z,7.52
2023-05-19T08:59:13.079Z,6.96
2023-05-19T09:00:13.034Z,7.16
2023-05-19T09:01:13.173Z,7.38
2023-05-19T09:02:13.013Z,6.64
2023-05-19T09:03:22.869Z,6.93
2023-05-19T09:04:13.218Z,7.19
2023-05-19T09:05:13.103Z,7.37
2023-05-19T09:06:13.043Z,7.46
2023-05-19T09:07:13.041Z,6.57
2023-05-19T09:09:13.100Z,7.11
2023-05-19T09:10:13.073Z,6.72
2023-05-19T09:11:13.107Z,7.45
2023-05-19T09:12:13.069Z,7.84
2023-05-19T09:13:13.069Z,8.40
2023-05-19T09:14:13.060Z,7.69
2023-05-19T09:15:13.150Z,7.05
2023-05-19T09:16:13.125Z,7.26
2023-05-19T09:17:13.099Z,7.20
2023-05-19T09:18:13.112Z,7.51
2023-05-19T09:19:13.165Z,7.33
2023-05-19T09:20:13.177Z,6.72
2023-05-19T09:21:13.128Z,7.33
2023-05-19T09:22:13.096Z,6.65
2023-05-19T09:23:13.116Z,8.03
2023-05-19T09:24:13.133Z,7.39
2023-05-19T09:25:13.162Z,7.75
2023-05-19T09:26:13.153Z,6.87
2023-05-19T09:27:13.106Z,7.13
2023-05-19T09:28:13.143Z,6.68
2023-05-19T09:29:13.151Z,6.67
2023-05-19T09:30:13.148Z,6.74
2023-05-19T09:31:13.187Z,6.49
2023-05-19T09:32:13.135Z,7.06
2023-05-19T09:34:13.121Z,6.70
2023-05-19T09:35:13.135Z,6.99
2023-05-19T09:36:13.203Z,7.37
2023-05-19T09:37:13.154Z,7.50
2023-05-19T09:38:13.142Z,7.17
2023-05-19T09:39:13.151Z,7.05
2023-05-19T09:40:13.159Z,7.74
2023-05-19T09:41:13.154Z,7.82
2023-05-19T09:42:13.170Z,7.90
2023-05-19T09:43:13.110Z,6.91
2023-05-19T09:44:13.153Z,7.22
2023-05-19T09:45:13.208Z,7.73
2023-05-19T09:47:13.157Z,7.12
2023-05-19T09:48:13.158Z,7.33
2023-05-19T09:49:13.178Z,7.45
2023-05-19T09:50:13.182Z,6.92
2023-05-19T09:51:13.234Z,6.72
2023-05-19T09:52:13.203Z,7.57
2023-05-19T09:53:13.156Z,6.99
2023-05-19T09:54:13.192Z,7.26
2023-05-19T09:55:13.203Z,6.99
2023-05-19T09:56:13.140Z,7.75
2023-05-19T09:57:13.193Z,7.61
2023-05-19T09:59:13.223Z,8.30
2023-05-19T10:00:13.217Z,7.75
2023-05-19T10:01:13.234Z,8.40
2023-05-19T10:02:13.191Z,7.43
2023-05-19T10:03:13.260Z,7.03
2023-05-19T10:04:13.171Z,7.15
2023-05-19T10:05:13.290Z,7.21
2023-05-19T10:06:13.298Z,7.88
2023-05-19T10:07:13.246Z,7.76
2023-05-19T10:08:13.261Z,7.74
2023-05-19T10:09:13.201Z,7.71
2023-05-19T10:10:13.270Z,7.44
2023-05-19T10:11:13.234Z,7.30
2023-05-19T10:12:13.255Z,7.52
2023-05-19T10:13:13.264Z,7.36
2023-05-19T10:14:13.193Z,7.35
2023-05-19T10:15:13.244Z,8.13
2023-05-19T10:16:13.321Z,7.82
2023-05-19T10:17:13.227Z,6.78
2023-05-19T10:18:13.326Z,7.32
2023-05-19T10:19:13.281Z,7.58
2023-05-19T10:20:13.201Z,7.69
2023-05-19T10:21:13.249Z,7.88
2023-05-19T10:22:13.225Z,7.61
2023-05-19T10:23:13.225Z,8.09
2023-05-19T10:24:13.453Z,7.78
2023-05-19T10:25:13.270Z,8.35
2023-05-19T10:26:13.270Z,8.50
2023-05-19T10:27:13.250Z,8.60
2023-05-19T10:28:13.268Z,8.29
2023-05-19T10:29:13.281Z,7.83
2023-05-19T10:32:13.372Z,7.34
2023-05-19T10:33:13.369Z,8.11
2023-05-19T10:34:13.295Z,8.35
2023-05-19T10:35:13.251Z,6.99
2023-05-19T10:36:13.285Z,7.84
2023-05-19T10:37:13.312Z,7.41
2023-05-19T10:38:13.275Z,8.44
2023-05-19T10:40:13.315Z,7.65
2023-05-19T10:41:13.332Z,8.49
2023-05-19T10:42:13.295Z,7.98
2023-05-19T10:43:13.292Z,7.31
2023-05-19T10:44:13.332Z,7.08
2023-05-19T10:46:13.389Z,8.32
2023-05-19T10:47:13.488Z,8.01
2023-05-19T10:48:13.342Z,7.34
2023-05-19T10:49:13.314Z,7.75
2023-05-19T10:50:13.358Z,8.61
2023-05-19T10:51:13.338Z,8.21
2023-05-19T10:52:13.355Z,8.20
2023-05-19T10:53:13.329Z,7.72
2023-05-19T10:54:14.413Z,8.06
2023-05-19T10:55:13.352Z,8.07
2023-05-19T10:56:13.319Z,7.14
2023-05-19T10:57:13.396Z,7.58
2023-05-19T10:58:13.381Z,8.15
2023-05-19T10:59:13.385Z,8.03
2023-05-19T11:00:13.345Z,8.16
2023-05-19T11:01:13.333Z,8.41
2023-05-19T11:02:13.417Z,7.59
2023-05-19T11:03:13.480Z,8.41
2023-05-19T11:04:13.384Z,7.99
2023-05-19T11:05:13.374Z,7.83
2023-05-19T11:06:13.397Z,7.42
2023-05-19T11:07:13.369Z,8.01
2023-05-19T11:08:13.398Z,8.67
2023-05-19T11:09:13.337Z,7.78
2023-05-19T11:10:13.567Z,7.87
2023-05-19T11:11:13.371Z,7.82
2023-05-19T11:12:13.430Z,8.05
2023-05-19T11:13:14.951Z,8.49
2023-05-19T11:14:13.394Z,9.25
2023-05-19T11:15:13.391Z,9.10
2023-05-19T11:16:13.421Z,8.07
2023-05-19T11:17:13.368Z,8.13
2023-05-19T11:18:13.409Z,8.97
2023-05-19T11:19:13.488Z,8.39
2023-05-19T11:20:13.479Z,8.59
2023-05-19T11:21:13.444Z,8.64
2023-05-19T11:22:13.439Z,8.24
2023-05-19T11:23:13.454Z,7.75
2023-05-19T11:24:13.438Z,8.12
2023-05-19T11:25:13.444Z,8.18
2023-05-19T11:26:13.455Z,9.05
2023-05-19T11:27:13.388Z,7.61
2023-05-19T11:28:13.469Z,8.23
2023-05-19T11:29:13.462Z,7.85
2023-05-19T11:30:13.419Z,8.46
2023-05-19T11:31:13.428Z,8.28
2023-05-19T11:32:13.500Z,7.63
2023-05-19T11:33:13.525Z,7.73
2023-05-19T11:34:13.427Z,8.10
2023-05-19T11:36:13.468Z,8.49
2023-05-19T11:37:13.475Z,7.82
2023-05-19T11:38:13.418Z,7.41
2023-05-19T11:39:13.467Z,7.68
2023-05-19T11:40:13.512Z,7.98
2023-05-19T11:41:13.481Z,7.71
2023-05-19T11:42:13.476Z,7.54
2023-05-19T11:43:13.444Z,8.72
2023-05-19T11:44:13.503Z,8.00
2023-05-19T11:45:13.472Z,7.39
2023-05-19T11:46:13.551Z,7.43
2023-05-19T11:47:13.499Z,7.45
2023-05-19T11:48:13.586Z,7.29
2023-05-19T11:49:13.525Z,7.56
2023-05-19T11:50:13.489Z,6.88
2023-05-19T11:51:13.467Z,7.35
2023-05-19T11:52:13.513Z,8.73
2023-05-19T11:53:13.548Z,8.77
2023-05-19T11:55:13.535Z,7.60
2023-05-19T11:56:13.457Z,7.62
2023-05-19T11:57:13.457Z,8.60
2023-05-19T11:58:13.529Z,7.47
2023-05-19T12:00:13.534Z,8.56
2023-05-19T12:01:13.537Z,7.51
2023-05-19T12:02:13.598Z,7.72
2023-05-19T12:03:13.773Z,7.53
2023-05-19T12:04:13.484Z,7.76
2023-05-19T12:05:13.618Z,8.72
2023-05-19T12:06:13.557Z,8.31
2023-05-19T12:07:13.499Z,7.81
2023-05-19T12:08:13.536Z,8.51
2023-05-19T12:09:13.497Z,7.83
2023-05-19T12:10:13.550Z,7.72
2023-05-19T12:11:13.569Z,7.36
2023-05-19T12:12:13.599Z,7.29
2023-05-19T12:13:13.563Z,7.82
2023-05-19T12:14:13.529Z,8.27
2023-05-19T12:15:13.540Z,7.72
2023-05-19T12:16:13.577Z,7.89
2023-05-19T12:17:13.532Z,8.62
2023-05-19T12:18:13.581Z,7.94
2023-05-19T12:19:13.643Z,8.48
2023-05-19T12:20:13.591Z,8.42
2023-05-19T12:21:13.586Z,7.82
2023-05-19T12:22:13.519Z,8.11
2023-05-19T12:23:13.548Z,7.50
2023-05-19T12:24:13.569Z,8.00
2023-05-19T12:25:13.532Z,7.77
2023-05-19T12:26:13.598Z,7.87
2023-05-19T12:27:13.608Z,8.20
2023-05-19T12:28:13.592Z,8.24
2023-05-19T12:29:13.554Z,8.56
2023-05-19T12:30:13.570Z,8.46
2023-05-19T12:31:13.662Z,8.33
2023-05-19T12:32:13.560Z,8.18
2023-05-19T12:33:13.624Z,8.54
2023-05-19T12:34:13.584Z,8.54
2023-05-19T12:35:13.557Z,7.71
2023-05-19T12:36:13.649Z,8.37
2023-05-19T12:37:13.586Z,8.00
2023-05-19T12:38:13.595Z,7.99
2023-05-19T12:39:13.620Z,7.98
2023-05-19T12:40:13.581Z,7.53
2023-05-19T12:41:13.605Z,7.35
2023-05-19T12:42:13.606Z,7.06
2023-05-19T12:43:13.574Z,7.39
2023-05-19T12:44:13.620Z,8.33
2023-05-19T12:45:13.676Z,8.08
2023-05-19T12:46:13.657Z,8.79
2023-05-19T12:47:13.595Z,8.47
2023-05-19T12:48:13.661Z,8.32
2023-05-19T12:49:13.643Z,7.01
2023-05-19T12:50:13.656Z,7.85
2023-05-19T12:51:13.647Z,7.41
2023-05-19T12:52:13.650Z,7.31
2023-05-19T12:53:13.613Z,6.97
2023-05-19T12:54:13.685Z,7.27
2023-05-19T12:55:13.745Z,7.19
2023-05-19T12:56:13.609Z,7.63
2023-05-19T12:57:13.661Z,7.97
2023-05-19T12:58:13.705Z,7.29
2023-05-19T12:59:15.318Z,7.56
2023-05-19T13:00:13.715Z,8.02
2023-05-19T13:01:13.848Z,7.99
2023-05-19T13:02:13.773Z,7.86
2023-05-19T13:03:13.761Z,8.23
2023-05-19T13:04:13.763Z,8.01
2023-05-19T13:05:13.672Z,8.43
2023-05-19T13:07:13.723Z,7.64
2023-05-19T13:08:13.710Z,7.56
2023-05-19T13:09:14.723Z,7.30
2023-05-19T13:10:13.688Z,7.99
2023-05-19T13:11:13.734Z,7.65
2023-05-19T13:12:13.682Z,7.95
2023-05-19T13:13:13.658Z,6.89
2023-05-19T13:14:13.701Z,7.41
2023-05-19T13:15:13.700Z,7.25
2023-05-19T13:16:13.736Z,7.54
2023-05-19T13:17:13.677Z,7.66
2023-05-19T13:18:13.743Z,7.42
2023-05-19T13:20:13.750Z,7.21
2023-05-19T13:21:13.718Z,8.21
2023-05-19T13:22:13.736Z,7.17
2023-05-19T13:23:13.762Z,8.34
2023-05-19T13:24:13.758Z,8.12
2023-05-19T13:25:13.701Z,7.49
2023-05-19T13:26:13.759Z,7.54
2023-05-19T13:27:13.738Z,7.29
2023-05-19T13:28:13.708Z,7.41
2023-05-19T13:29:13.758Z,7.47
2023-05-19T13:30:13.695Z,7.81
2023-05-19T13:31:13.799Z,8.03
2023-05-19T13:32:13.777Z,7.55
2023-05-19T13:33:13.862Z,7.30
2023-05-19T13:34:13.746Z,7.40
2023-05-19T13:35:13.746Z,7.42
2023-05-19T13:36:13.780Z,7.26
2023-05-19T13:37:13.852Z,7.70
2023-05-19T13:38:13.735Z,7.76
2023-05-19T13:39:13.719Z,7.42
2023-05-19T13:40:13.801Z,7.37
2023-05-19T13:41:15.208Z,8.40
2023-05-19T13:42:13.733Z,7.26
2023-05-19T13:43:13.771Z,7.18
2023-05-19T13:44:13.804Z,7.02
2023-05-19T13:45:13.815Z,6.90
2023-05-19T13:48:13.822Z,7.55
2023-05-19T13:49:13.805Z,7.84
2023-05-19T13:50:13.793Z,7.41
2023-05-19T13:51:13.767Z,7.50
2023-05-19T13:52:13.823Z,7.46
2023-05-19T13:53:13.837Z,7.31
2023-05-19T13:54:13.800Z,8.06
2023-05-19T13:55:13.829Z,7.77
2023-05-19T13:56:13.794Z,8.41
2023-05-19T13:57:13.799Z,7.66
2023-05-19T13:58:13.820Z,8.09
2023-05-19T13:59:13.801Z,7.44
2023-05-19T14:00:13.833Z,6.74
2023-05-19T14:01:13.821Z,6.91
2023-05-19T14:02:13.836Z,7.34
2023-05-19T14:03:13.870Z,8.00
2023-05-19T14:04:14.079Z,7.77
2023-05-19T14:05:13.847Z,7.07
2023-05-19T14:06:13.879Z,7.76
2023-05-19T14:07:13.851Z,6.47
2023-05-19T14:08:13.845Z,7.09
2023-05-19T14:09:13.803Z,7.15
2023-05-19T14:10:13.855Z,7.73
2023-05-19T14:11:13.842Z,6.92
2023-05-19T14:12:13.907Z,6.75
2023-05-19T14:13:31.488Z,7.25
2023-05-19T14:14:13.834Z,7.51
2023-05-19T14:15:13.889Z,7.43
2023-05-19T14:16:13.882Z,5.92
2023-05-19T14:17:13.843Z,6.69
2023-05-19T14:18:13.881Z,5.85
2023-05-19T14:19:14.221Z,5.86
2023-05-19T14:20:13.872Z,7.18
2023-05-19T14:21:13.882Z,6.65
2023-05-19T14:22:13.838Z,7.26
2023-05-19T14:23:13.848Z,6.55
2023-05-19T14:24:13.889Z,6.83
2023-05-19T14:25:13.888Z,6.89
2023-05-19T14:26:13.863Z,6.62
2023-05-19T14:27:13.867Z,6.66